createdAt,value
2022-12-05T00:02:15.345Z,4.17
2022-12-05T00:04:44.582Z,4.22
2022-12-05T00:07:13.234Z,4.28
2022-12-05T00:09:43.019Z,3.64
2022-12-05T00:12:12.344Z,4.23
2022-12-05T00:14:41.004Z,4.28
2022-12-05T00:17:09.685Z,4.28
2022-12-05T00:19:38.030Z,4.27
2022-12-05T00:22:06.651Z,4.28
2022-12-05T00:24:35.217Z,4.27
2022-12-05T00:27:05.001Z,4.28
2022-12-05T00:29:33.756Z,4.28
2022-12-05T00:32:02.372Z,4.23
2022-12-05T00:34:31.043Z,4.18
2022-12-05T00:36:59.675Z,3.73
2022-12-05T00:39:28.032Z,4.14
2022-12-05T00:41:56.639Z,4.16
2022-12-05T00:44:26.668Z,4.20
2022-12-05T00:46:55.294Z,4.29
2022-12-05T00:49:23.930Z,4.25
2022-12-05T00:51:52.667Z,4.20
2022-12-05T00:54:21.247Z,4.23
2022-12-05T00:56:52.328Z,4.25
2022-12-05T00:59:21.574Z,4.22
2022-12-05T01:01:53.297Z,4.21
2022-12-05T01:04:25.404Z,4.20
2022-12-05T01:06:59.071Z,4.01
2022-12-05T01:09:28.275Z,4.16
2022-12-05T01:11:56.880Z,4.08
2022-12-05T01:14:27.542Z,3.88
2022-12-05T01:16:58.084Z,4.12
2022-12-05T01:19:29.367Z,3.96
2022-12-05T01:21:59.132Z,3.48
2022-12-05T01:24:29.761Z,4.03
2022-12-05T01:26:59.009Z,4.06
2022-12-05T01:29:27.930Z,4.11
2022-12-05T01:31:57.982Z,4.06
2022-12-05T01:34:27.076Z,4.06
2022-12-05T01:36:55.669Z,3.99
2022-12-05T01:39:24.370Z,4.00
2022-12-05T01:41:53.308Z,3.97
2022-12-05T01:45:03.270Z,3.66
2022-12-05T01:47:37.905Z,3.95
2022-12-05T01:50:08.330Z,3.97
2022-12-05T01:52:37.313Z,4.02
2022-12-05T01:55:11.499Z,4.04
2022-12-05T01:57:40.490Z,3.97
2022-12-05T02:00:15.351Z,3.96
2022-12-05T02:02:52.431Z,4.01
2022-12-05T02:05:26.658Z,2.49
2022-12-05T02:07:55.828Z,3.97
2022-12-05T02:10:25.132Z,3.97
2022-12-05T02:12:54.299Z,3.94
2022-12-05T02:15:40.372Z,3.75
2022-12-05T02:18:29.501Z,3.98
2022-12-05T02:21:39.283Z,3.88
2022-12-05T02:24:56.616Z,3.73
2022-12-05T02:27:53.521Z,3.95
2022-12-05T02:30:25.389Z,3.95
2022-12-05T02:33:13.035Z,3.98
2022-12-05T02:35:54.253Z,3.94
2022-12-05T02:38:32.362Z,3.91
2022-12-05T02:41:13.559Z,3.96
2022-12-05T02:43:52.782Z,3.88
2022-12-05T02:46:25.314Z,3.95
2022-12-05T02:49:04.524Z,3.68
2022-12-05T02:51:39.520Z,3.95
2022-12-05T02:54:15.975Z,3.94
2022-12-05T02:56:47.731Z,3.94
2022-12-05T02:59:21.488Z,3.88
2022-12-05T03:01:53.274Z,3.00
2022-12-05T03:04:26.448Z,3.64
2022-12-05T03:07:01.168Z,3.92
2022-12-05T03:09:36.493Z,3.44
2022-12-05T03:12:12.801Z,3.90
2022-12-05T03:14:49.973Z,3.91
2022-12-05T03:17:29.678Z,3.95
2022-12-05T03:20:06.353Z,3.92
2022-12-05T03:22:41.823Z,3.92
2022-12-05T03:25:11.852Z,3.96
2022-12-05T03:27:52.128Z,3.90
2022-12-05T03:30:23.888Z,3.87
2022-12-05T03:33:06.962Z,3.74
2022-12-05T03:35:47.367Z,3.94
2022-12-05T03:38:26.473Z,3.93
2022-12-05T03:41:03.837Z,3.97
2022-12-05T03:43:41.931Z,4.03
2022-12-05T03:46:19.150Z,3.80
2022-12-05T03:48:57.368Z,3.97
2022-12-05T03:51:36.173Z,3.78
2022-12-05T03:54:09.481Z,3.91
2022-12-05T03:56:45.041Z,3.73
2022-12-05T03:59:24.761Z,3.79
2022-12-05T04:01:57.103Z,3.28
2022-12-05T04:04:34.989Z,3.90
2022-12-05T04:07:09.091Z,3.84
2022-12-05T04:09:45.942Z,3.87
2022-12-05T04:12:22.437Z,4.03
2022-12-05T04:14:57.170Z,4.07
2022-12-05T04:17:36.465Z,4.07
2022-12-05T04:20:33.255Z,4.05
2022-12-05T04:23:02.184Z,3.97
2022-12-05T04:25:43.610Z,3.98
2022-12-05T04:28:28.246Z,4.00
2022-12-05T04:31:06.685Z,3.79
2022-12-05T04:33:44.240Z,2.98
2022-12-05T04:36:21.132Z,3.82
2022-12-05T04:38:54.758Z,2.86
2022-12-05T04:41:29.778Z,4.05
2022-12-05T04:44:07.134Z,3.90
2022-12-05T04:46:37.447Z,3.79
2022-12-05T04:49:11.146Z,3.67
2022-12-05T04:51:47.111Z,4.02
2022-12-05T04:54:22.236Z,4.02
2022-12-05T04:57:01.150Z,3.91
2022-12-05T04:59:30.650Z,3.57
2022-12-05T05:02:07.895Z,4.09
2022-12-05T05:04:42.513Z,4.10
2022-12-05T05:07:14.378Z,4.00
2022-12-05T05:09:44.951Z,3.14
2022-12-05T05:12:18.782Z,4.06
2022-12-05T05:14:47.956Z,4.06
2022-12-05T05:17:16.619Z,4.09
2022-12-05T05:19:45.238Z,4.14
2022-12-05T05:22:15.206Z,4.13
2022-12-05T05:24:43.907Z,4.12
2022-12-05T05:27:12.549Z,4.14
2022-12-05T05:29:41.581Z,4.16
2022-12-05T05:32:10.233Z,4.04
2022-12-05T05:34:38.995Z,4.06
2022-12-05T05:37:07.601Z,4.09
2022-12-05T05:39:37.368Z,4.03
2022-12-05T05:42:06.358Z,4.03
2022-12-05T05:44:35.255Z,4.06
2022-12-05T05:47:03.891Z,4.12
2022-12-05T05:49:32.611Z,4.19
2022-12-05T05:52:01.353Z,4.16
2022-12-05T05:54:30.244Z,4.15
2022-12-05T05:57:00.270Z,4.12
2022-12-05T05:59:29.334Z,4.13
2022-12-05T06:01:58.043Z,4.11
2022-12-05T06:04:26.873Z,4.11
2022-12-05T06:06:55.528Z,4.16
2022-12-05T06:09:24.325Z,4.18
2022-12-05T06:11:52.613Z,4.21
2022-12-05T06:14:22.385Z,4.20
2022-12-05T06:16:51.123Z,4.12
2022-12-05T06:19:19.822Z,4.12
2022-12-05T06:21:51.545Z,4.17
2022-12-05T06:24:20.168Z,4.18
2022-12-05T06:26:48.746Z,4.22
2022-12-05T06:29:20.593Z,4.15
2022-12-05T06:31:53.799Z,4.18
2022-12-05T06:34:22.432Z,4.21
2022-12-05T06:36:51.024Z,4.22
2022-12-05T06:39:19.582Z,4.19
2022-12-05T06:41:48.223Z,4.20
2022-12-05T06:44:16.824Z,4.16
2022-12-05T06:46:45.408Z,4.19
2022-12-05T06:49:15.057Z,4.08
2022-12-05T06:51:43.714Z,4.15
2022-12-05T06:54:13.713Z,4.02
2022-12-05T06:56:42.386Z,4.07
2022-12-05T06:59:10.967Z,4.05
2022-12-05T07:01:39.107Z,4.11
2022-12-05T07:04:12.281Z,4.13
2022-12-05T07:06:48.671Z,4.12
2022-12-05T07:09:20.240Z,4.15
2022-12-05T07:11:49.387Z,4.24
2022-12-05T07:14:45.817Z,4.26
2022-12-05T07:17:07.360Z,4.31
2022-12-05T07:19:36.107Z,4.33
2022-12-05T07:22:08.368Z,4.37
2022-12-05T07:24:40.403Z,4.30
2022-12-05T07:27:08.761Z,4.13
2022-12-05T07:29:37.383Z,4.37
2022-12-05T07:32:06.394Z,4.34
2022-12-05T07:34:35.026Z,4.36
2022-12-05T07:37:05.012Z,4.33
2022-12-05T07:39:33.708Z,4.33
2022-12-05T07:42:02.338Z,4.35
2022-12-05T07:44:31.160Z,4.40
2022-12-05T07:47:00.010Z,4.38
2022-12-05T07:49:28.937Z,4.47
2022-12-05T07:51:57.654Z,4.53
2022-12-05T07:54:27.385Z,4.56
2022-12-05T07:56:56.040Z,4.55
2022-12-05T07:59:24.367Z,4.42
2022-12-05T08:01:53.167Z,4.53
2022-12-05T08:04:21.915Z,4.43
2022-12-05T08:06:50.212Z,4.38
2022-12-05T08:09:19.244Z,4.37
2022-12-05T08:11:52.548Z,4.33
2022-12-05T08:14:21.678Z,4.38
2022-12-05T08:16:50.122Z,4.52
2022-12-05T08:19:18.861Z,4.49
2022-12-05T08:21:47.702Z,4.57
2022-12-05T08:24:16.490Z,4.77
2022-12-05T08:26:45.105Z,4.93
2022-12-05T08:29:16.859Z,4.96
2022-12-05T08:31:48.837Z,4.81
2022-12-05T08:34:20.372Z,4.53
2022-12-05T08:36:49.702Z,5.05
2022-12-05T08:39:20.888Z,4.95
2022-12-05T08:41:49.936Z,5.37
2022-12-05T08:44:19.849Z,5.38
2022-12-05T08:46:51.105Z,5.43
2022-12-05T08:49:20.678Z,5.47
2022-12-05T08:51:49.530Z,5.53
2022-12-05T08:54:18.675Z,5.62
2022-12-05T08:56:47.281Z,5.64
2022-12-05T08:59:15.856Z,5.45
2022-12-05T09:01:45.607Z,5.28
2022-12-05T09:04:14.019Z,5.30
2022-12-05T09:06:42.983Z,5.11
2022-12-05T09:09:12.978Z,4.86
2022-12-05T09:11:46.778Z,5.06
2022-12-05T09:14:16.529Z,5.13
2022-12-05T09:16:48.474Z,4.86
2022-12-05T09:19:21.698Z,4.76
2022-12-05T09:21:50.320Z,5.21
2022-12-05T09:24:19.025Z,4.90
2022-12-05T09:26:47.963Z,4.91
2022-12-05T09:29:17.999Z,4.89
2022-12-05T09:31:51.707Z,4.92
2022-12-05T09:34:20.456Z,4.93
2022-12-05T09:37:05.577Z,4.69
2022-12-05T09:39:39.518Z,4.91
2022-12-05T09:42:31.178Z,5.03
2022-12-05T09:45:27.053Z,5.09
2022-12-05T09:48:05.973Z,5.10
2022-12-05T09:50:44.331Z,4.43
2022-12-05T09:53:28.581Z,4.82
2022-12-05T09:56:04.799Z,5.24
2022-12-05T09:58:45.810Z,5.19
2022-12-05T10:01:32.628Z,4.73
2022-12-05T10:04:33.505Z,5.13
2022-12-05T10:07:13.409Z,5.25
2022-12-05T10:09:57.646Z,4.89
2022-12-05T10:12:54.795Z,5.19
2022-12-05T10:15:35.980Z,5.00
2022-12-05T10:18:16.081Z,5.06
2022-12-05T10:20:55.245Z,5.43
2022-12-05T10:23:55.980Z,5.66
2022-12-05T10:26:18.988Z,5.69
2022-12-05T10:28:57.025Z,5.26
2022-12-05T10:31:32.501Z,5.19
2022-12-05T10:34:11.542Z,4.92
2022-12-05T10:36:44.647Z,4.78
2022-12-05T10:39:13.332Z,5.31
2022-12-05T10:41:41.997Z,5.30
2022-12-05T10:44:12.187Z,5.31
2022-12-05T10:46:41.050Z,5.46
2022-12-05T10:49:13.296Z,5.56
2022-12-05T10:51:43.303Z,5.56
2022-12-05T10:54:22.036Z,5.80
2022-12-05T10:56:52.495Z,5.48
2022-12-05T10:59:25.323Z,5.93
2022-12-05T11:01:57.602Z,5.81
2022-12-05T11:04:31.372Z,5.86
2022-12-05T11:07:04.293Z,5.91
2022-12-05T11:09:36.865Z,5.97
2022-12-05T11:12:20.238Z,5.98
2022-12-05T11:15:03.473Z,5.86
2022-12-05T11:17:36.098Z,5.81
2022-12-05T11:20:36.961Z,5.99
2022-12-05T11:23:24.508Z,6.03
2022-12-05T11:25:54.113Z,6.02
2022-12-05T11:28:33.961Z,6.02
2022-12-05T11:31:08.483Z,6.03
2022-12-05T11:33:37.812Z,6.05
2022-12-05T11:36:18.751Z,6.06
2022-12-05T11:38:49.876Z,5.90
2022-12-05T11:41:50.049Z,6.06
2022-12-05T11:44:40.564Z,6.01
2022-12-05T11:47:29.362Z,5.69
2022-12-05T11:50:17.332Z,5.99
2022-12-05T11:53:03.240Z,6.00
2022-12-05T11:55:40.782Z,5.81
2022-12-05T11:58:41.364Z,5.91
2022-12-05T12:01:24.782Z,5.06
2022-12-05T12:04:36.192Z,5.26
2022-12-05T12:07:45.278Z,6.04
2022-12-05T12:10:28.200Z,5.96
2022-12-05T12:13:17.602Z,5.81
2022-12-05T12:16:08.396Z,6.01
2022-12-05T12:19:03.276Z,4.93
2022-12-05T12:21:51.114Z,5.76
2022-12-05T12:24:32.939Z,5.83
2022-12-05T12:27:16.858Z,5.87
2022-12-05T12:30:06.246Z,5.81
2022-12-05T12:32:44.900Z,4.98
2022-12-05T12:35:31.953Z,5.85
2022-12-05T12:38:31.136Z,5.64
2022-12-05T12:41:14.428Z,5.92
2022-12-05T12:43:58.488Z,5.98
2022-12-05T12:46:48.677Z,5.97
2022-12-05T12:49:52.198Z,6.03
2022-12-05T12:52:29.105Z,6.00
2022-12-05T12:55:19.916Z,5.64
2022-12-05T12:58:11.915Z,5.85
2022-12-05T13:01:02.571Z,5.82
2022-12-05T13:03:42.847Z,5.35
2022-12-05T13:06:21.625Z,5.53
2022-12-05T13:08:57.255Z,5.83
2022-12-05T13:11:26.693Z,5.98
2022-12-05T13:14:00.437Z,6.04
2022-12-05T13:16:37.976Z,5.43
2022-12-05T13:19:27.240Z,5.07
2022-12-05T13:21:59.066Z,5.92
2022-12-05T13:24:30.042Z,6.12
2022-12-05T13:27:02.871Z,5.24
2022-12-05T13:29:37.742Z,5.98
2022-12-05T13:32:08.850Z,5.85
2022-12-05T13:34:48.588Z,5.98
2022-12-05T13:37:44.871Z,6.03
2022-12-05T13:40:48.109Z,6.03
2022-12-05T13:43:22.347Z,5.87
2022-12-05T13:46:08.384Z,4.95
2022-12-05T13:48:50.979Z,5.92
2022-12-05T13:51:34.078Z,5.55
2022-12-05T13:54:12.276Z,6.02
2022-12-05T13:56:54.478Z,6.07
2022-12-05T14:00:06.363Z,6.08
2022-12-05T14:02:56.667Z,6.05
2022-12-05T14:05:50.767Z,6.06
2022-12-05T14:08:55.423Z,6.09
2022-12-05T14:11:24.745Z,6.06
2022-12-05T14:13:55.003Z,6.07
2022-12-05T14:16:50.698Z,6.08
2022-12-05T14:19:56.742Z,6.08
2022-12-05T14:22:54.918Z,5.75
2022-12-05T14:26:08.515Z,6.03
2022-12-05T14:28:59.745Z,5.86
2022-12-05T14:31:46.743Z,5.39
2022-12-05T14:34:24.912Z,6.09
2022-12-05T14:37:03.624Z,5.88
2022-12-05T14:39:42.020Z,6.09
2022-12-05T14:42:28.746Z,6.07
2022-12-05T14:45:02.877Z,5.71
2022-12-05T14:47:35.347Z,6.09
2022-12-05T14:50:37.052Z,6.09
2022-12-05T14:53:34.967Z,5.92
2022-12-05T14:56:20.666Z,5.92
2022-12-05T14:58:59.730Z,5.93
2022-12-05T15:01:33.023Z,5.40
2022-12-05T15:04:21.066Z,5.97
2022-12-05T15:06:55.711Z,4.54
2022-12-05T15:09:46.440Z,5.99
2022-12-05T15:12:20.983Z,5.99
2022-12-05T15:15:04.037Z,6.00
2022-12-05T15:17:43.407Z,5.72
2022-12-05T15:20:24.244Z,6.02
2022-12-05T15:22:52.620Z,5.91
2022-12-05T15:25:34.075Z,5.93
2022-12-05T15:28:07.851Z,5.89
2022-12-05T15:30:40.842Z,5.67
2022-12-05T15:33:14.585Z,5.57
2022-12-05T15:35:48.054Z,5.74
2022-12-05T15:38:27.748Z,6.07
2022-12-05T15:41:02.449Z,6.12
2022-12-05T15:43:33.250Z,5.89
2022-12-05T15:46:24.027Z,6.09
2022-12-05T15:48:55.598Z,5.93
2022-12-05T15:51:32.689Z,6.04
2022-12-05T15:54:11.703Z,6.04
2022-12-05T15:56:46.379Z,6.05
2022-12-05T15:59:21.823Z,5.79
2022-12-05T16:01:58.245Z,5.82
2022-12-05T16:04:35.039Z,6.08
2022-12-05T16:07:10.476Z,6.08
2022-12-05T16:09:43.050Z,5.31
2022-12-05T16:12:28.421Z,6.09
2022-12-05T16:15:04.880Z,6.13
2022-12-05T16:17:44.306Z,6.13
2022-12-05T16:20:23.933Z,6.15
2022-12-05T16:22:55.959Z,5.90
2022-12-05T16:25:28.489Z,6.14
2022-12-05T16:28:00.492Z,6.15
2022-12-05T16:30:30.585Z,6.13
2022-12-05T16:33:13.912Z,6.07
2022-12-05T16:35:45.501Z,6.07
2022-12-05T16:38:19.382Z,6.07
2022-12-05T16:41:00.881Z,6.06
2022-12-05T16:43:44.093Z,5.95
2022-12-05T16:46:47.188Z,5.88
2022-12-05T16:49:34.383Z,5.93
2022-12-05T16:52:14.483Z,5.76
2022-12-05T16:54:43.765Z,5.95
2022-12-05T16:57:16.063Z,6.05
2022-12-05T16:59:48.317Z,5.66
2022-12-05T17:02:21.951Z,5.90
2022-12-05T17:04:58.070Z,5.90
2022-12-05T17:07:32.419Z,6.05
2022-12-05T17:10:02.156Z,6.04
2022-12-05T17:12:30.857Z,6.01
2022-12-05T17:14:59.690Z,6.01
2022-12-05T17:17:28.216Z,5.86
2022-12-05T17:19:57.956Z,5.99
2022-12-05T17:22:28.208Z,5.98
2022-12-05T17:24:59.868Z,5.95
2022-12-05T17:27:28.472Z,5.82
2022-12-05T17:29:57.510Z,5.93
2022-12-05T17:32:26.436Z,5.93
2022-12-05T17:34:54.981Z,5.89
2022-12-05T17:37:24.617Z,5.22
2022-12-05T17:39:53.269Z,5.90
2022-12-05T17:42:21.588Z,5.77
2022-12-05T17:44:50.309Z,5.83
2022-12-05T17:47:19.199Z,5.82
2022-12-05T17:49:47.909Z,5.77
2022-12-05T17:55:08.220Z,5.73
2022-12-05T17:57:37.545Z,5.72
2022-12-05T18:00:07.679Z,5.25
2022-12-05T18:02:36.364Z,5.63
2022-12-05T18:05:05.908Z,5.59
2022-12-05T18:07:35.038Z,5.60
2022-12-05T18:10:09.577Z,5.61
2022-12-05T18:12:42.714Z,5.35
2022-12-05T18:15:12.845Z,5.33
2022-12-05T18:17:42.341Z,5.50
2022-12-05T18:20:15.673Z,5.05
2022-12-05T18:22:44.824Z,5.31
2022-12-05T18:25:14.017Z,5.50
2022-12-05T18:27:43.858Z,5.17
2022-12-05T18:30:13.565Z,5.01
2022-12-05T18:32:42.263Z,5.41
2022-12-05T18:35:13.041Z,4.94
2022-12-05T18:37:42.345Z,5.37
2022-12-05T18:40:13.323Z,5.30
2022-12-05T18:42:44.644Z,4.93
2022-12-05T18:45:13.578Z,5.36
2022-12-05T18:47:42.221Z,5.40
2022-12-05T18:50:11.367Z,5.43
2022-12-05T18:52:40.014Z,5.41
2022-12-05T18:55:17.231Z,5.35
2022-12-05T18:57:47.941Z,5.11
2022-12-05T19:00:18.178Z,5.32
2022-12-05T19:02:49.613Z,5.14
2022-12-05T19:05:18.843Z,5.30
2022-12-05T19:07:47.637Z,5.26
2022-12-05T19:10:16.895Z,5.25
2022-12-05T19:12:47.831Z,5.06
2022-12-05T19:15:16.634Z,5.26
2022-12-05T19:17:45.592Z,5.24
2022-12-05T19:20:15.153Z,5.26
2022-12-05T19:22:43.929Z,5.25
2022-12-05T19:25:12.609Z,4.79
2022-12-05T19:27:41.690Z,5.19
2022-12-05T19:30:12.587Z,4.70
2022-12-05T19:32:43.738Z,5.15
2022-12-05T19:35:13.191Z,5.14
2022-12-05T19:37:42.467Z,5.13
2022-12-05T19:40:13.426Z,5.01
2022-12-05T19:42:44.135Z,4.82
2022-12-05T19:45:17.860Z,5.12
2022-12-05T19:47:46.978Z,5.14
2022-12-05T19:50:16.249Z,5.14
2022-12-05T19:52:44.889Z,5.11
2022-12-05T19:55:13.693Z,5.06
2022-12-05T19:57:42.573Z,5.06
2022-12-05T20:00:17.157Z,4.44
2022-12-05T20:02:50.581Z,5.03
2022-12-05T20:05:19.566Z,5.04
2022-12-05T20:07:48.388Z,5.04
2022-12-05T20:10:17.638Z,5.04
2022-12-05T20:12:46.279Z,5.01
2022-12-05T20:15:16.573Z,5.00
2022-12-05T20:17:50.153Z,4.97
2022-12-05T20:20:22.002Z,4.93
2022-12-05T20:22:50.941Z,4.93
2022-12-05T20:25:19.804Z,4.90
2022-12-05T20:27:48.618Z,4.89
2022-12-05T20:30:18.983Z,4.91
2022-12-05T20:32:47.568Z,4.87
2022-12-05T20:35:20.974Z,4.87
2022-12-05T20:37:52.767Z,4.85
2022-12-05T20:40:21.323Z,4.87
2022-12-05T20:42:50.187Z,4.88
2022-12-05T20:45:19.897Z,4.42
2022-12-05T20:47:48.554Z,4.58
2022-12-05T20:50:17.367Z,4.84
2022-12-05T20:52:47.080Z,4.66
2022-12-05T20:55:16.032Z,4.84
2022-12-05T20:57:44.377Z,4.84
2022-12-05T21:00:13.914Z,4.63
2022-12-05T21:02:43.697Z,4.82
2022-12-05T21:05:13.886Z,4.82
2022-12-05T21:07:42.765Z,4.82
2022-12-05T21:10:12.214Z,4.75
2022-12-05T21:12:40.922Z,4.80
2022-12-05T21:15:11.308Z,4.81
2022-12-05T21:17:39.916Z,4.81
2022-12-05T21:20:11.632Z,4.80
2022-12-05T21:22:40.245Z,4.80
2022-12-05T21:25:09.157Z,4.82
2022-12-05T21:27:37.759Z,4.83
2022-12-05T21:30:07.580Z,4.29
2022-12-05T21:32:36.345Z,4.83
2022-12-05T21:35:05.321Z,4.81
2022-12-05T21:37:36.823Z,4.82
2022-12-05T21:40:06.284Z,4.52
2022-12-05T21:42:35.166Z,4.81
2022-12-05T21:45:03.860Z,4.78
2022-12-05T21:47:32.707Z,4.77
2022-12-05T21:50:01.696Z,4.79
2022-12-05T21:52:30.429Z,4.78
2022-12-05T21:55:00.134Z,4.79
2022-12-05T21:57:33.447Z,4.80
2022-12-05T22:00:02.087Z,4.77
2022-12-05T22:02:33.437Z,4.77
2022-12-05T22:05:02.137Z,4.77
2022-12-05T22:07:30.773Z,4.77
2022-12-05T22:10:00.779Z,4.79
2022-12-05T22:12:29.725Z,4.79
2022-12-05T22:14:58.287Z,4.77
2022-12-05T22:17:26.900Z,4.74
2022-12-05T22:19:55.195Z,4.71
2022-12-05T22:22:24.003Z,4.71
2022-12-05T22:24:52.944Z,4.68
2022-12-05T22:27:23.165Z,4.46
2022-12-05T22:29:52.963Z,4.63
2022-12-05T22:32:21.696Z,4.60
2022-12-05T22:34:50.301Z,4.57
2022-12-05T22:37:18.921Z,4.52
2022-12-05T22:39:47.507Z,4.50
2022-12-05T22:42:16.228Z,4.50
2022-12-05T22:44:45.863Z,4.46
2022-12-05T22:47:14.319Z,4.44
2022-12-05T22:49:42.920Z,4.44
2022-12-05T22:52:11.559Z,4.44
2022-12-05T22:54:40.233Z,4.45
2022-12-05T22:57:08.851Z,4.40
2022-12-05T22:59:37.404Z,4.33
2022-12-05T23:02:07.039Z,4.31
2022-12-05T23:04:35.395Z,4.37
2022-12-05T23:07:03.949Z,4.38
2022-12-05T23:09:32.618Z,4.38
2022-12-05T23:12:01.266Z,4.39
2022-12-05T23:14:29.928Z,4.40
2022-12-05T23:16:58.510Z,4.35
2022-12-05T23:19:28.517Z,4.31
2022-12-05T23:21:57.132Z,4.27
2022-12-05T23:24:25.724Z,4.23
2022-12-05T23:26:54.351Z,4.24
2022-12-05T23:29:23.328Z,4.26
2022-12-05T23:31:51.972Z,4.28
2022-12-05T23:34:20.437Z,4.25
2022-12-05T23:36:50.365Z,4.18
2022-12-05T23:39:19.595Z,4.08
2022-12-05T23:41:48.944Z,3.99
2022-12-05T23:44:17.559Z,3.90
2022-12-05T23:46:46.409Z,3.79
2022-12-05T23:49:15.117Z,3.66
2022-12-05T23:51:43.709Z,3.57
2022-12-05T23:54:13.797Z,3.26
2022-12-05T23:56:42.430Z,3.46
2022-12-05T23:59:11.176Z,3.43
